Time;durP1;ratioP1;P1;durP2;ratioP2;P2;SDS_P1;SDS_P2;PMS_P1;PMS_P2;Temp;Humidity;BMP_temperature;BMP_pressure;BME280_temperature;BME280_humidity;BME280_pressure;Samples;Min_cycle;Max_cycle;Signal;HPM_P1;HPM_P2
2022/05/24 00:01:03;;;;;;;4.93;3.95;;;17.50;99.90;;;;;;5059341;28;20191;-86
2022/05/24 00:03:32;;;;;;;5.35;3.78;;;17.40;99.90;;;;;;5062360;28;20205;-82
2022/05/24 00:06:09;;;;;;;4.63;3.72;;;17.40;99.90;;;;;;5061075;28;20187;-82
2022/05/24 00:08:35;;;;;;;4.95;3.70;;;17.40;99.90;;;;;;5062486;28;20209;-83
2022/05/24 00:11:06;;;;;;;4.05;3.65;;;17.50;99.90;;;;;;5054667;28;20251;-85
2022/05/24 00:13:32;;;;;;;4.20;3.80;;;17.50;99.90;;;;;;5029557;28;20182;-84
2022/05/24 00:16:07;;;;;;;5.03;4.30;;;17.50;99.90;;;;;;5056255;28;20178;-85
2022/05/24 00:18:34;;;;;;;4.90;4.40;;;17.50;99.90;;;;;;5057939;28;20178;-82
2022/05/24 00:21:02;;;;;;;4.57;4.00;;;17.50;99.90;;;;;;5034108;28;20267;-84
2022/05/24 00:23:30;;;;;;;5.05;4.53;;;17.60;99.90;;;;;;5057817;28;20201;-83
2022/05/24 00:25:59;;;;;;;4.75;4.20;;;17.60;99.90;;;;;;5031951;28;20188;-82
2022/05/24 00:28:26;;;;;;;5.88;4.65;;;17.60;99.90;;;;;;5027374;28;20194;-82
2022/05/24 00:30:52;;;;;;;6.30;4.38;;;17.60;99.90;;;;;;5059847;28;20213;-82
2022/05/24 00:33:21;;;;;;;5.10;4.60;;;17.60;99.90;;;;;;5028900;28;20175;-82
2022/05/24 00:35:47;;;;;;;4.47;4.05;;;17.60;99.90;;;;;;5061266;28;20175;-82
2022/05/24 00:38:36;;;;;;;4.95;4.45;;;17.60;99.90;;;;;;5063974;28;20252;-77
2022/05/24 00:41:25;;;;;;;4.93;4.15;;;17.60;99.90;;;;;;5051727;28;20193;-82
2022/05/24 00:44:03;;;;;;;5.03;4.38;;;17.60;99.90;;;;;;5039988;28;20186;-83
2022/05/24 00:47:21;;;;;;;7.20;4.07;;;17.60;99.90;;;;;;5040486;28;20179;-82
2022/05/24 00:49:48;;;;;;;4.25;3.80;;;17.60;99.90;;;;;;5023236;28;20193;-83
2022/05/24 00:52:21;;;;;;;5.32;4.40;;;17.60;99.90;;;;;;5055927;28;20202;-83
2022/05/24 00:54:46;;;;;;;4.78;4.03;;;17.60;99.90;;;;;;5046194;28;20193;-81
2022/05/24 00:57:30;;;;;;;4.22;3.63;;;17.60;99.90;;;;;;5055452;28;20178;-80
2022/05/24 01:00:05;;;;;;;5.65;4.40;;;17.60;99.90;;;;;;5036925;28;20233;-79
2022/05/24 01:02:41;;;;;;;4.30;3.90;;;17.60;99.90;;;;;;5048188;28;20208;-82
2022/05/24 01:05:14;;;;;;;5.50;4.20;;;17.60;99.90;;;;;;5028166;28;20174;-82
2022/05/24 01:07:42;;;;;;;5.07;4.30;;;17.60;99.90;;;;;;5033928;28;20198;-83
2022/05/24 01:10:12;;;;;;;4.80;3.67;;;17.60;99.90;;;;;;5061019;28;20178;-79
2022/05/24 01:13:06;;;;;;;4.43;3.78;;;17.60;99.90;;;;;;5030891;28;20177;-83
2022/05/24 01:15:32;;;;;;;3.97;3.58;;;17.60;99.90;;;;;;5053412;28;20170;-84
2022/05/24 01:17:59;;;;;;;5.25;4.28;;;17.50;99.90;;;;;;5052689;28;20174;-86
2022/05/24 01:20:25;;;;;;;4.45;3.88;;;17.50;99.90;;;;;;5067594;28;20181;-81
2022/05/24 01:23:05;;;;;;;6.45;3.80;;;17.50;99.90;;;;;;5066809;28;20178;-83
2022/05/24 01:25:48;;;;;;;6.07;4.20;;;17.50;99.90;;;;;;5049059;28;20170;-84
2022/05/24 01:28:25;;;;;;;4.55;3.83;;;17.60;99.90;;;;;;5065130;28;20204;-82
2022/05/24 01:30:51;;;;;;;4.13;3.72;;;17.60;99.90;;;;;;5058331;28;20174;-79
2022/05/24 01:36:11;;;;;;;4.35;3.40;;;17.60;99.90;;;;;;5031708;28;20283;-81
2022/05/24 01:38:45;;;;;;;3.55;3.15;;;17.50;99.90;;;;;;5053160;28;20181;-84
2022/05/24 01:41:22;;;;;;;3.40;2.95;;;17.60;99.90;;;;;;5052101;28;20173;-85
2022/05/24 01:43:51;;;;;;;2.85;2.50;;;17.60;99.90;;;;;;5060244;28;20216;-87
2022/05/24 01:46:21;;;;;;;2.50;2.30;;;17.60;99.90;;;;;;5049540;28;20431;-80
2022/05/24 01:49:02;;;;;;;3.78;2.42;;;17.60;99.90;;;;;;5041558;28;20213;-83
2022/05/24 01:51:37;;;;;;;3.08;2.63;;;17.60;99.90;;;;;;5054254;28;20193;-80
2022/05/24 01:54:05;;;;;;;2.50;2.17;;;17.50;99.90;;;;;;5022860;28;20425;-85
2022/05/24 01:56:45;;;;;;;2.70;2.15;;;17.50;99.90;;;;;;5021235;28;20213;-86
2022/05/24 01:59:12;;;;;;;2.63;2.03;;;17.50;99.90;;;;;;5034840;28;20179;-84
2022/05/24 02:01:52;;;;;;;2.65;2.10;;;17.50;99.90;;;;;;5054241;28;20179;-77
2022/05/24 02:04:20;;;;;;;2.20;2.00;;;17.50;99.90;;;;;;5060946;28;20298;-84
2022/05/24 02:07:02;;;;;;;2.15;1.95;;;17.50;99.90;;;;;;5068132;28;20174;-84
2022/05/24 02:09:34;;;;;;;2.25;2.00;;;17.50;99.90;;;;;;5068065;28;20225;-80
2022/05/24 02:12:07;;;;;;;2.97;2.17;;;17.50;99.90;;;;;;5055229;28;20293;-86
2022/05/24 02:14:40;;;;;;;2.22;2.03;;;17.50;99.90;;;;;;5032670;28;20261;-83
2022/05/24 02:17:16;;;;;;;1.90;1.80;;;17.50;99.90;;;;;;5047250;28;20179;-78
2022/05/24 02:19:49;;;;;;;2.20;2.00;;;17.50;99.90;;;;;;5058478;28;20189;-79
2022/05/24 02:22:21;;;;;;;1.98;1.77;;;17.60;99.90;;;;;;5061848;28;20189;-78
2022/05/24 02:25:00;;;;;;;2.30;2.10;;;17.50;99.90;;;;;;5027956;28;20208;-80
2022/05/24 02:27:27;;;;;;;2.10;1.80;;;17.50;99.90;;;;;;5060011;28;20198;-83
2022/05/24 02:29:56;;;;;;;2.03;1.83;;;17.50;99.90;;;;;;5058465;28;20184;-82
2022/05/24 02:32:23;;;;;;;3.67;1.75;;;17.50;99.90;;;;;;5075946;28;20197;-81
2022/05/24 02:34:50;;;;;;;2.33;2.13;;;17.50;99.90;;;;;;5068385;28;20182;-86
2022/05/24 02:37:19;;;;;;;2.60;2.10;;;17.50;99.90;;;;;;5034038;28;20178;-84
2022/05/24 02:42:30;;;;;;;3.40;2.72;;;17.50;99.90;;;;;;5018571;28;20185;-83
2022/05/24 02:44:56;;;;;;;3.65;2.47;;;17.50;99.90;;;;;;5058282;28;20272;-84
2022/05/24 02:47:22;;;;;;;2.63;2.28;;;17.40;99.90;;;;;;5055156;28;20304;-84
2022/05/24 02:49:47;;;;;;;2.58;1.98;;;17.40;99.90;;;;;;5017956;28;20210;-83
2022/05/24 02:52:15;;;;;;;2.35;2.15;;;17.40;99.90;;;;;;5064766;28;20194;-83
2022/05/24 02:54:41;;;;;;;2.38;2.08;;;17.40;99.90;;;;;;5051934;28;20292;-79
2022/05/24 02:57:07;;;;;;;2.30;2.00;;;17.30;99.90;;;;;;5061770;28;20187;-82
2022/05/24 02:59:33;;;;;;;3.58;2.40;;;17.30;99.90;;;;;;5068173;28;20182;-81
2022/05/24 03:01:59;;;;;;;2.70;2.50;;;17.30;99.90;;;;;;5032731;28;20288;-83
2022/05/24 03:04:25;;;;;;;2.47;2.28;;;17.30;99.90;;;;;;5035225;28;20237;-78
2022/05/24 03:09:36;;;;;;;2.83;2.20;;;17.20;99.90;;;;;;5020807;28;20232;-81
2022/05/24 03:14:54;;;;;;;3.03;2.50;;;17.10;99.90;;;;;;5019561;28;20177;-75
2022/05/24 03:17:23;;;;;;;2.38;2.17;;;17.10;99.90;;;;;;5039901;28;20182;-81
2022/05/24 03:19:49;;;;;;;2.95;2.20;;;17.10;99.90;;;;;;5048502;28;20193;-77
2022/05/24 03:22:15;;;;;;;2.40;2.20;;;17.00;99.90;;;;;;5033467;28;20186;-80
2022/05/24 03:24:41;;;;;;;2.85;2.10;;;17.00;99.90;;;;;;5067812;28;20196;-78
2022/05/24 03:27:13;;;;;;;3.28;2.38;;;16.90;99.90;;;;;;5064601;28;20198;-80
2022/05/24 03:29:44;;;;;;;2.30;2.10;;;16.80;99.90;;;;;;5022355;28;20205;-80
2022/05/24 03:32:12;;;;;;;3.25;2.10;;;16.80;99.90;;;;;;5069680;28;20170;-80
2022/05/24 03:34:38;;;;;;;3.33;2.40;;;16.70;99.90;;;;;;5069201;28;20260;-80
2022/05/24 03:37:07;;;;;;;2.85;2.25;;;16.70;99.90;;;;;;5032344;28;20276;-80
2022/05/24 03:39:34;;;;;;;2.70;2.03;;;16.60;99.90;;;;;;5065920;28;20178;-82
2022/05/24 03:42:03;;;;;;;3.22;2.10;;;16.60;99.90;;;;;;5057353;28;20178;-78
2022/05/24 03:44:32;;;;;;;2.97;2.50;;;16.60;99.90;;;;;;5059840;28;20237;-80
2022/05/24 03:46:58;;;;;;;3.05;2.30;;;16.60;99.90;;;;;;5053110;28;20189;-79
2022/05/24 03:49:24;;;;;;;4.10;2.50;;;16.50;99.90;;;;;;5060910;28;20170;-79
2022/05/24 03:51:50;;;;;;;3.30;2.50;;;16.60;99.90;;;;;;5059338;28;20201;-76
2022/05/24 03:54:21;;;;;;;3.80;2.30;;;16.60;99.90;;;;;;5060013;28;20202;-78
2022/05/24 03:59:34;;;;;;;3.92;3.15;;;16.50;99.90;;;;;;5027708;28;20256;-78
2022/05/24 04:02:02;;;;;;;3.78;2.80;;;16.60;99.90;;;;;;5066370;28;20294;-79
2022/05/24 04:04:27;;;;;;;3.42;2.67;;;16.60;99.90;;;;;;5065870;28;20260;-81
2022/05/24 04:06:56;;;;;;;4.78;2.60;;;16.50;99.90;;;;;;5048729;28;20175;-78
2022/05/24 04:09:26;;;;;;;3.75;2.20;;;16.50;99.90;;;;;;5067515;28;20178;-80
2022/05/24 04:11:55;;;;;;;3.50;2.17;;;16.40;99.90;;;;;;5066473;28;20206;-81
2022/05/24 04:14:21;;;;;;;3.22;1.90;;;16.40;99.90;;;;;;5063154;28;20178;-80
2022/05/24 04:16:48;;;;;;;2.83;1.80;;;16.30;99.90;;;;;;5068647;28;20181;-83
2022/05/24 04:19:14;;;;;;;2.40;1.67;;;16.20;99.90;;;;;;5056758;28;20179;-83
2022/05/24 04:21:40;;;;;;;3.13;1.90;;;16.10;99.90;;;;;;5048659;28;20173;-76
2022/05/24 04:24:06;;;;;;;3.35;1.80;;;16.00;99.90;;;;;;5055832;28;20186;-79
2022/05/24 04:26:34;;;;;;;2.60;2.00;;;15.90;99.90;;;;;;5040020;28;20170;-79
2022/05/24 04:28:59;;;;;;;5.63;2.17;;;15.80;99.90;;;;;;5030621;28;20214;-80
2022/05/24 04:31:27;;;;;;;4.95;2.47;;;15.70;99.90;;;;;;5055345;28;20277;-80
2022/05/24 04:33:53;;;;;;;4.43;2.00;;;15.50;99.90;;;;;;5065850;28;20192;-82
2022/05/24 04:36:18;;;;;;;4.07;2.05;;;15.50;99.90;;;;;;5033904;28;20182;-80
2022/05/24 04:38:46;;;;;;;2.65;1.85;;;15.40;99.90;;;;;;5042069;28;20264;-81
2022/05/24 04:44:00;;;;;;;5.70;2.30;;;15.20;99.90;;;;;;5041976;28;20201;-79
2022/05/24 04:47:06;;;;;;;3.60;2.15;;;15.10;99.90;;;;;;5017976;28;20230;-77
2022/05/24 04:49:12;;;;;;;2.85;1.92;;;15.10;99.90;;;;;;5026517;28;20182;-78
2022/05/24 04:51:40;;;;;;;2.45;1.65;;;15.00;99.90;;;;;;5066687;28;20174;-77
2022/05/24 04:54:06;;;;;;;4.47;2.17;;;14.90;99.90;;;;;;5067874;28;20268;-78
2022/05/24 04:56:36;;;;;;;2.88;1.95;;;14.90;99.90;;;;;;5065378;28;20276;-77
2022/05/24 04:59:02;;;;;;;3.60;2.20;;;14.90;99.90;;;;;;5034778;28;20236;-77
2022/05/24 05:01:28;;;;;;;7.00;2.60;;;14.90;99.90;;;;;;5056716;28;20209;-78
2022/05/24 05:03:56;;;;;;;3.83;2.20;;;14.90;99.90;;;;;;5017960;28;20182;-77
2022/05/24 05:06:21;;;;;;;5.70;2.38;;;14.90;99.90;;;;;;5030750;28;20194;-77
2022/05/24 05:08:49;;;;;;;3.38;2.10;;;14.90;99.90;;;;;;5067032;28;20267;-75
2022/05/24 05:11:15;;;;;;;3.35;2.10;;;14.90;99.90;;;;;;5036224;28;20170;-75
2022/05/24 05:13:41;;;;;;;3.17;1.98;;;15.00;99.90;;;;;;5033941;28;20499;-74
2022/05/24 05:16:07;;;;;;;4.30;2.10;;;14.90;99.90;;;;;;5032039;28;20170;-76
2022/05/24 05:18:32;;;;;;;3.17;2.10;;;14.90;99.90;;;;;;5059919;28;20186;-76
2022/05/24 05:21:00;;;;;;;3.90;2.20;;;14.90;99.90;;;;;;5061756;28;20262;-76
2022/05/24 05:23:28;;;;;;;3.55;1.83;;;14.90;99.90;;;;;;5030149;28;20175;-76
2022/05/24 05:25:53;;;;;;;3.78;2.03;;;14.90;99.90;;;;;;5054166;28;20166;-77
2022/05/24 05:28:19;;;;;;;3.85;2.20;;;14.90;99.90;;;;;;5025487;28;20213;-75
2022/05/24 05:33:34;;;;;;;5.07;2.13;;;14.90;99.90;;;;;;5034898;28;20177;-77
2022/05/24 05:36:00;;;;;;;5.13;2.47;;;14.90;99.90;;;;;;5026094;28;20198;-77
2022/05/24 05:38:28;;;;;;;4.18;2.28;;;14.90;99.90;;;;;;5064304;28;20185;-77
2022/05/24 05:40:54;;;;;;;3.00;2.20;;;14.90;99.90;;;;;;5057973;28;20200;-77
2022/05/24 05:43:24;;;;;;;5.68;2.45;;;14.90;99.90;;;;;;5066848;28;20240;-77
2022/05/24 05:45:52;;;;;;;3.50;2.40;;;14.90;99.90;;;;;;5053655;28;20225;-75
2022/05/24 05:48:18;;;;;;;3.35;2.30;;;14.90;99.90;;;;;;5049121;28;20447;-74
2022/05/24 05:50:44;;;;;;;2.92;2.33;;;14.90;99.90;;;;;;5047246;28;20235;-76
2022/05/24 05:53:16;;;;;;;2.72;2.08;;;14.90;99.90;;;;;;5040984;28;20202;-76
2022/05/24 05:55:42;;;;;;;5.20;2.38;;;14.90;99.90;;;;;;5033329;28;20521;-76
2022/05/24 05:58:08;;;;;;;4.15;2.20;;;14.90;99.90;;;;;;5059073;28;20217;-76
2022/05/24 06:00:35;;;;;;;5.00;2.30;;;14.90;99.90;;;;;;5046877;28;20187;-76
2022/05/24 06:03:01;;;;;;;3.60;2.40;;;14.90;99.90;;;;;;5035729;28;20270;-76
2022/05/24 06:05:29;;;;;;;4.75;2.38;;;14.80;99.90;;;;;;5070812;28;20244;-77
2022/05/24 06:07:56;;;;;;;3.28;2.20;;;14.90;99.90;;;;;;5053272;28;20206;-77
2022/05/24 06:10:26;;;;;;;3.55;2.20;;;14.80;99.90;;;;;;5055300;28;20178;-74
2022/05/24 06:12:51;;;;;;;3.50;2.40;;;14.80;99.90;;;;;;5063181;28;20422;-77
2022/05/24 06:15:19;;;;;;;3.08;2.13;;;14.80;99.90;;;;;;5070650;28;20177;-77
2022/05/24 06:17:48;;;;;;;3.30;2.28;;;14.80;99.90;;;;;;5070349;28;20178;-77
2022/05/24 06:20:16;;;;;;;5.35;2.17;;;14.80;99.90;;;;;;5037589;28;20205;-77
2022/05/24 06:22:44;;;;;;;4.20;1.98;;;14.80;99.90;;;;;;5024048;28;20193;-72
2022/05/24 06:25:10;;;;;;;4.03;1.95;;;14.70;99.90;;;;;;5050532;28;20237;-75
2022/05/24 06:27:36;;;;;;;2.78;1.70;;;14.70;99.90;;;;;;5066713;28;20313;-75
2022/05/24 06:30:02;;;;;;;2.83;1.50;;;14.70;99.90;;;;;;5068247;28;20408;-74
2022/05/24 06:32:28;;;;;;;2.60;1.60;;;14.60;99.90;;;;;;5065908;28;20162;-74
2022/05/24 06:34:53;;;;;;;3.75;1.20;;;14.60;99.90;;;;;;5054542;28;20184;-76
2022/05/24 06:37:22;;;;;;;2.40;1.10;;;14.60;99.90;;;;;;5070157;28;20269;-74
2022/05/24 06:39:48;;;;;;;2.53;1.20;;;14.50;99.90;;;;;;5034403;28;20182;-75
2022/05/24 06:42:15;;;;;;;2.00;1.00;;;14.50;99.90;;;;;;5033762;28;20249;-75
2022/05/24 06:44:40;;;;;;;1.25;1.00;;;14.40;99.90;;;;;;5050276;28;20187;-75
2022/05/24 06:47:09;;;;;;;2.03;0.80;;;14.40;99.90;;;;;;5033765;28;20256;-75
2022/05/24 06:49:36;;;;;;;1.15;1.00;;;14.30;99.90;;;;;;5070218;28;20182;-75
2022/05/24 06:52:03;;;;;;;2.28;1.13;;;14.30;99.90;;;;;;5064646;28;20174;-75
2022/05/24 06:54:29;;;;;;;1.75;0.85;;;14.30;99.90;;;;;;5052069;28;20212;-75
2022/05/24 06:56:55;;;;;;;0.95;0.80;;;14.30;99.90;;;;;;5061665;28;20200;-74
2022/05/24 07:02:26;;;;;;;1.92;1.00;;;14.30;99.90;;;;;;5034212;28;20204;-76
2022/05/24 07:05:19;;;;;;;2.15;0.90;;;14.40;99.90;;;;;;5064159;28;20189;-75
2022/05/24 07:07:47;;;;;;;1.42;0.90;;;14.40;99.90;;;;;;5030423;28;20210;-75
2022/05/24 07:10:17;;;;;;;2.33;1.17;;;14.50;99.90;;;;;;5036716;28;20174;-76
2022/05/24 07:12:42;;;;;;;2.35;0.95;;;14.60;99.90;;;;;;5061697;28;20194;-79
2022/05/24 07:15:09;;;;;;;1.52;0.90;;;14.60;99.90;;;;;;5064701;28;20178;-78
2022/05/24 07:17:35;;;;;;;1.05;0.80;;;14.60;99.90;;;;;;5050073;28;20204;-77
2022/05/24 07:20:04;;;;;;;1.25;0.77;;;14.60;99.90;;;;;;5068794;28;20177;-78
2022/05/24 07:22:31;;;;;;;1.30;0.80;;;14.60;99.90;;;;;;5056172;28;20222;-79
2022/05/24 07:24:56;;;;;;;1.23;0.75;;;14.70;99.90;;;;;;5052415;28;20186;-72
2022/05/24 07:27:25;;;;;;;1.58;0.90;;;14.70;99.90;;;;;;5050081;28;20275;-79
2022/05/24 07:29:50;;;;;;;1.50;1.00;;;14.80;99.90;;;;;;5049010;28;20179;-78
2022/05/24 07:32:16;;;;;;;2.13;0.90;;;14.80;99.90;;;;;;5060738;28;20178;-79
2022/05/24 07:34:42;;;;;;;1.60;0.82;;;14.90;99.90;;;;;;5068861;28;20236;-80
2022/05/24 07:37:14;;;;;;;1.20;0.93;;;14.90;99.90;;;;;;5063215;28;20192;-79
2022/05/24 07:39:42;;;;;;;1.83;0.88;;;15.00;99.90;;;;;;5062752;28;20197;-79
2022/05/24 07:47:40;;;;;;;1.13;0.85;;;15.10;99.90;;;;;;5031285;28;20233;-79
2022/05/24 07:50:08;;;;;;;2.65;0.90;;;15.10;99.90;;;;;;5062591;28;20201;-76
2022/05/24 07:52:36;;;;;;;3.00;1.05;;;15.10;99.90;;;;;;5032122;28;20190;-80
2022/05/24 07:55:07;;;;;;;2.53;1.10;;;15.10;99.90;;;;;;5039480;28;20189;-80
2022/05/24 07:57:33;;;;;;;1.83;0.90;;;15.10;99.90;;;;;;5035463;28;20245;-76
2022/05/24 08:00:00;;;;;;;1.85;0.70;;;15.10;99.90;;;;;;5062780;28;20217;-76
2022/05/24 08:02:29;;;;;;;1.17;0.90;;;15.10;99.90;;;;;;5068658;28;20192;-75
2022/05/24 08:04:54;;;;;;;1.48;0.95;;;15.10;99.90;;;;;;5067748;28;20178;-74
2022/05/24 08:07:20;;;;;;;1.52;0.80;;;15.20;99.90;;;;;;5063155;28;20206;-78
2022/05/24 08:09:50;;;;;;;2.47;0.85;;;15.30;99.90;;;;;;5064714;28;20173;-76
2022/05/24 08:12:16;;;;;;;2.58;1.10;;;15.40;99.90;;;;;;5068619;28;20188;-74
2022/05/24 08:14:41;;;;;;;3.60;1.00;;;15.40;99.90;;;;;;5034783;28;20198;-76
2022/05/24 08:17:09;;;;;;;2.30;0.90;;;15.50;99.90;;;;;;5062059;28;20191;-78
2022/05/24 08:19:35;;;;;;;3.35;1.08;;;15.60;99.90;;;;;;5034049;28;20325;-78
2022/05/24 08:22:01;;;;;;;1.63;0.90;;;15.60;99.90;;;;;;5068409;28;20209;-78
2022/05/24 08:24:26;;;;;;;2.90;1.00;;;15.60;99.90;;;;;;5068181;28;20166;-76
2022/05/24 08:26:57;;;;;;;1.63;1.10;;;15.70;99.90;;;;;;5060059;28;20179;-78
2022/05/24 08:29:24;;;;;;;4.03;1.45;;;15.80;99.90;;;;;;5035016;28;20253;-78
2022/05/24 08:31:52;;;;;;;4.15;1.13;;;15.80;99.90;;;;;;5067636;28;20170;-76
2022/05/24 08:34:18;;;;;;;1.50;1.00;;;15.90;99.90;;;;;;5068066;28;20177;-76
2022/05/24 08:36:44;;;;;;;2.13;1.08;;;16.00;99.90;;;;;;5068204;28;20170;-78
2022/05/24 08:39:14;;;;;;;2.28;1.10;;;16.10;99.90;;;;;;5032846;28;20186;-78
2022/05/24 08:42:10;;;;;;;3.10;1.20;;;16.20;99.90;;;;;;5068234;28;20200;-80
2022/05/24 08:50:18;;;;;;;2.72;1.20;;;16.40;99.90;;;;;;5025255;28;20181;-77
2022/05/24 08:52:53;;;;;;;3.17;1.00;;;16.50;99.90;;;;;;5067742;28;20186;-74
2022/05/24 08:55:21;;;;;;;1.77;0.90;;;16.60;99.90;;;;;;5063876;28;20189;-79
2022/05/24 08:57:58;;;;;;;1.67;0.90;;;16.60;99.90;;;;;;5057519;28;20186;-79
2022/05/24 09:00:39;;;;;;;2.22;0.98;;;16.70;99.90;;;;;;5053202;28;20182;-81
2022/05/24 09:03:07;;;;;;;1.33;1.00;;;16.80;99.90;;;;;;5056663;28;20179;-80
2022/05/24 09:05:40;;;;;;;2.45;1.10;;;16.90;99.90;;;;;;5060682;28;20186;-80
2022/05/24 09:08:17;;;;;;;2.95;0.90;;;16.90;99.90;;;;;;5067766;28;20213;-81
2022/05/24 09:10:48;;;;;;;2.00;0.90;;;16.90;99.90;;;;;;5067335;28;20181;-81
2022/05/24 09:13:28;;;;;;;2.53;1.00;;;16.90;99.90;;;;;;5051018;28;20170;-78
2022/05/24 09:16:09;;;;;;;1.42;0.70;;;17.00;99.90;;;;;;5031371;28;20225;-82
2022/05/24 09:18:50;;;;;;;1.25;0.80;;;17.10;99.90;;;;;;5059071;28;20281;-83
2022/05/24 09:21:31;;;;;;;2.42;0.93;;;17.10;99.90;;;;;;5050747;28;20167;-83
2022/05/24 09:24:19;;;;;;;2.13;0.80;;;17.20;99.90;;;;;;5063317;28;20441;-81
2022/05/24 09:27:04;;;;;;;2.50;0.88;;;17.30;99.90;;;;;;5020670;28;20174;-82
2022/05/24 09:29:31;;;;;;;2.10;1.40;;;17.40;99.90;;;;;;5036174;28;20206;-83
2022/05/24 09:31:59;;;;;;;1.35;0.90;;;17.40;99.90;;;;;;5065604;28;20204;-82
2022/05/24 09:34:33;;;;;;;3.38;1.30;;;17.40;99.90;;;;;;5051694;28;20185;-79
2022/05/24 09:37:00;;;;;;;1.20;0.90;;;17.50;99.90;;;;;;5053613;28;20192;-81
2022/05/24 09:39:37;;;;;;;1.42;1.00;;;17.50;99.90;;;;;;5034727;28;20182;-81
2022/05/24 09:42:09;;;;;;;1.95;1.00;;;17.50;99.90;;;;;;5058179;28;20204;-81
2022/05/24 09:45:02;;;;;;;1.73;0.85;;;17.60;99.90;;;;;;5037930;28;20185;-79
2022/05/24 09:47:46;;;;;;;1.13;0.70;;;17.70;99.90;;;;;;5046942;28;20197;-87
2022/05/24 09:50:17;;;;;;;1.88;0.75;;;17.70;99.90;;;;;;5054674;28;20177;-82
2022/05/24 09:53:06;;;;;;;1.45;0.80;;;17.80;99.90;;;;;;5032963;28;20182;-84
2022/05/24 09:56:03;;;;;;;1.70;0.80;;;17.80;99.90;;;;;;5067909;28;20206;-84
2022/05/24 09:58:37;;;;;;;1.50;0.77;;;17.80;99.90;;;;;;5026496;28;20186;-81
2022/05/24 10:01:08;;;;;;;1.77;0.70;;;17.80;99.90;;;;;;5025937;28;20182;-86
2022/05/24 10:03:44;;;;;;;1.95;0.80;;;17.90;99.90;;;;;;5055393;28;20182;-84
2022/05/24 10:06:12;;;;;;;2.42;1.02;;;17.90;99.90;;;;;;5065731;28;20228;-85
2022/05/24 10:08:44;;;;;;;1.13;0.77;;;18.00;99.90;;;;;;5035334;28;20210;-83
2022/05/24 10:11:40;;;;;;;1.65;0.90;;;18.10;99.90;;;;;;5018602;28;20191;-84
2022/05/24 10:14:23;;;;;;;1.63;0.80;;;18.20;99.90;;;;;;5031413;28;20170;-84
2022/05/24 10:16:58;;;;;;;1.42;0.70;;;18.20;99.90;;;;;;5035379;28;20258;-83
2022/05/24 10:20:08;;;;;;;1.85;0.80;;;18.40;99.90;;;;;;5034468;28;20272;-84
2022/05/24 10:22:42;;;;;;;0.95;0.65;;;18.40;99.90;;;;;;5010233;28;20273;-78
2022/05/24 10:25:46;;;;;;;3.40;0.70;;;18.60;99.90;;;;;;5070423;28;20176;-80
2022/05/24 10:28:41;;;;;;;1.25;0.70;;;18.70;99.90;;;;;;5068478;28;20232;-80
2022/05/24 10:31:16;;;;;;;0.90;0.57;;;19.00;99.90;;;;;;5035597;28;20182;-83
2022/05/24 10:40:03;;;;;;;2.35;0.73;;;19.50;99.90;;;;;;5019509;28;20195;-83
2022/05/24 10:42:48;;;;;;;1.15;0.70;;;19.50;99.90;;;;;;5046793;28;20195;-83
2022/05/24 10:45:20;;;;;;;2.15;0.90;;;19.50;99.90;;;;;;5036894;28;20177;-86
2022/05/24 10:48:03;;;;;;;1.02;0.60;;;19.40;99.90;;;;;;5067949;28;20208;-84
2022/05/24 10:50:40;;;;;;;1.58;0.75;;;19.40;99.90;;;;;;5069334;28;20178;-85
2022/05/24 10:53:24;;;;;;;1.35;0.60;;;19.30;99.90;;;;;;5064186;28;20175;-84
2022/05/24 10:56:01;;;;;;;1.15;0.80;;;19.30;99.90;;;;;;5051620;28;20201;-84
2022/05/24 10:58:32;;;;;;;1.13;0.80;;;19.30;99.90;;;;;;5050348;28;20273;-82
2022/05/24 11:01:13;;;;;;;0.98;0.60;;;19.50;99.90;;;;;;5060529;28;20277;-83
2022/05/24 11:03:47;;;;;;;2.80;0.80;;;19.70;99.90;;;;;;5033062;28;20253;-83
2022/05/24 11:06:25;;;;;;;1.52;0.80;;;19.80;99.90;;;;;;5050656;28;20249;-87
2022/05/24 11:09:00;;;;;;;0.90;0.60;;;19.90;99.90;;;;;;5033337;28;20225;-83
2022/05/24 11:11:59;;;;;;;1.27;0.70;;;20.00;99.90;;;;;;5057935;28;20170;-86
2022/05/24 11:14:48;;;;;;;1.15;0.70;;;20.10;99.90;;;;;;5062260;28;20178;-81
2022/05/24 11:17:17;;;;;;;2.13;0.90;;;20.10;99.90;;;;;;5061579;28;20269;-83
2022/05/24 11:19:49;;;;;;;2.22;0.90;;;20.10;99.90;;;;;;5069638;28;20186;-87
2022/05/24 11:22:30;;;;;;;0.98;0.70;;;20.20;99.90;;;;;;5069738;28;20194;-81
2022/05/24 11:25:13;;;;;;;1.25;0.70;;;20.30;99.90;;;;;;5050065;28;20250;-86
2022/05/24 11:27:46;;;;;;;1.00;0.63;;;20.50;99.90;;;;;;5036082;28;20267;-84
2022/05/24 11:30:30;;;;;;;1.63;0.63;;;20.70;99.90;;;;;;5033100;28;20218;-69
2022/05/24 11:33:32;;;;;;;0.93;0.50;;;20.90;99.90;;;;;;5045942;28;20194;-69
2022/05/24 11:36:35;;;;;;;1.00;0.63;;;21.00;99.90;;;;;;5015306;28;20239;-69
2022/05/24 11:39:26;;;;;;;1.13;0.45;;;21.00;99.90;;;;;;5049545;28;20225;-69
2022/05/24 11:42:20;;;;;;;1.77;0.70;;;21.10;99.90;;;;;;5029843;28;20218;-69
2022/05/24 11:44:49;;;;;;;1.98;0.70;;;21.10;99.90;;;;;;5032915;28;20190;-69
2022/05/24 11:47:34;;;;;;;0.70;0.65;;;21.10;99.90;;;;;;5035616;28;20216;-69
2022/05/24 11:50:05;;;;;;;1.40;0.50;;;21.00;99.90;;;;;;5047636;28;20260;-69
2022/05/24 11:52:55;;;;;;;1.10;0.60;;;21.00;99.90;;;;;;5062803;28;20182;-70
2022/05/24 11:55:44;;;;;;;1.00;0.60;;;20.90;99.90;;;;;;5042867;28;20186;-70
2022/05/24 11:58:21;;;;;;;0.43;0.40;;;20.90;99.90;;;;;;5041338;28;20194;-70
2022/05/24 12:01:03;;;;;;;2.17;0.68;;;20.80;99.90;;;;;;5050679;28;20170;-70
2022/05/24 12:09:22;;;;;;;2.45;0.70;;;20.90;99.90;;;;;;5029313;28;20251;-70
2022/05/24 12:12:08;;;;;;;1.13;0.50;;;20.80;99.90;;;;;;5056519;28;20201;-70
2022/05/24 12:14:37;;;;;;;4.03;0.80;;;20.70;99.90;;;;;;5031880;28;20209;-70
2022/05/24 12:17:05;;;;;;;2.78;0.77;;;20.60;99.90;;;;;;5029782;28;20338;-70
2022/05/24 12:19:38;;;;;;;0.60;0.55;;;20.50;99.90;;;;;;5031879;28;20265;-71
2022/05/24 12:22:27;;;;;;;1.63;0.70;;;20.50;99.90;;;;;;5032044;28;20423;-72
2022/05/24 12:25:02;;;;;;;1.77;0.70;;;20.50;99.90;;;;;;5048405;28;20209;-72
2022/05/24 12:27:33;;;;;;;1.23;0.60;;;20.50;99.90;;;;;;5053020;28;20198;-70
2022/05/24 12:30:22;;;;;;;0.82;0.60;;;20.50;99.90;;;;;;5045288;28;20183;-71
2022/05/24 12:32:52;;;;;;;0.82;0.68;;;20.50;99.90;;;;;;5048351;28;20189;-71
2022/05/24 12:35:22;;;;;;;0.85;0.60;;;20.60;99.90;;;;;;5030656;28;20182;-70
2022/05/24 12:37:56;;;;;;;0.88;0.60;;;20.80;99.90;;;;;;5034080;28;20296;-71
2022/05/24 12:40:31;;;;;;;1.20;0.70;;;20.90;99.90;;;;;;5063231;28;20186;-71
2022/05/24 12:43:03;;;;;;;1.25;0.68;;;21.10;99.90;;;;;;5059327;28;20203;-71
2022/05/24 12:45:33;;;;;;;0.95;0.60;;;21.30;99.90;;;;;;5020043;28;20257;-72
2022/05/24 12:48:01;;;;;;;1.08;0.50;;;21.40;99.90;;;;;;5059362;28;20201;-72
2022/05/24 12:50:39;;;;;;;0.73;0.63;;;21.50;99.90;;;;;;5047866;28;20206;-71
2022/05/24 12:53:08;;;;;;;0.43;0.43;;;21.60;99.90;;;;;;5060425;28;20174;-71
2022/05/24 12:58:44;;;;;;;0.75;0.68;;;22.00;99.90;;;;;;5015989;28;20197;-70
2022/05/24 13:01:24;;;;;;;0.73;0.50;;;22.10;99.90;;;;;;5048904;28;20269;-69
2022/05/24 13:04:08;;;;;;;0.75;0.50;;;22.20;99.90;;;;;;5066484;28;20173;-69
2022/05/24 13:06:36;;;;;;;1.63;0.60;;;22.10;99.90;;;;;;5067062;28;20177;-69
2022/05/24 13:09:13;;;;;;;0.85;0.70;;;22.00;99.90;;;;;;5053465;28;20210;-70
2022/05/24 13:11:39;;;;;;;1.70;0.60;;;21.80;99.90;;;;;;5030464;28;20158;-71
2022/05/24 13:14:09;;;;;;;0.75;0.68;;;21.60;99.90;;;;;;5060771;28;20202;-71
2022/05/24 13:16:41;;;;;;;2.20;0.88;;;21.20;99.90;;;;;;5032598;28;20186;-71
2022/05/24 13:19:10;;;;;;;0.70;0.55;;;20.80;99.90;;;;;;5067621;28;20235;-71
2022/05/24 13:21:36;;;;;;;1.15;0.80;;;20.50;99.90;;;;;;5032971;28;20201;-70
2022/05/24 13:24:19;;;;;;;0.95;0.60;;;20.20;99.90;;;;;;5034540;28;20178;-70
2022/05/24 13:27:05;;;;;;;0.82;0.60;;;20.10;99.90;;;;;;5028761;28;20300;-69
2022/05/24 13:33:33;;;;;;;2.30;1.05;;;20.10;99.90;;;;;;5047826;28;20182;-72
2022/05/24 13:35:03;;;;;;;0.90;0.70;;;20.20;99.90;;;;;;5015008;28;20201;-71
2022/05/24 13:37:52;;;;;;;1.15;0.70;;;20.30;99.90;;;;;;5049114;28;20210;-70
2022/05/24 13:40:18;;;;;;;1.42;0.68;;;20.40;99.90;;;;;;5041987;28;20182;-70
2022/05/24 13:42:55;;;;;;;1.60;0.70;;;20.60;99.90;;;;;;5028497;28;20208;-69
2022/05/24 13:45:26;;;;;;;0.75;0.70;;;20.70;99.90;;;;;;5066747;28;20174;-70
2022/05/24 13:47:57;;;;;;;1.35;0.70;;;20.90;99.90;;;;;;5048365;28;20203;-71
2022/05/24 13:50:28;;;;;;;1.88;0.60;;;21.00;99.90;;;;;;5054322;28;20266;-68
2022/05/24 13:53:02;;;;;;;0.73;0.60;;;21.10;99.90;;;;;;5050446;28;20204;-70
2022/05/24 13:55:34;;;;;;;0.60;0.57;;;21.10;99.90;;;;;;5032458;28;20189;-70
2022/05/24 13:58:05;;;;;;;1.25;0.60;;;21.10;99.90;;;;;;5064837;28;20192;-70
2022/05/24 14:00:39;;;;;;;0.80;0.60;;;21.10;99.90;;;;;;5050604;28;20297;-69
2022/05/24 14:03:26;;;;;;;0.50;0.43;;;21.10;99.90;;;;;;5032526;28;20186;-70
2022/05/24 14:06:03;;;;;;;0.90;0.60;;;21.10;99.90;;;;;;5043887;28;20225;-70